Time;durP1;ratioP1;P1;durP2;ratioP2;P2;SDS_P1;SDS_P2;PMS_P1;PMS_P2;Temp;Humidity;BMP_temperature;BMP_pressure;BME280_temperature;BME280_humidity;BME280_pressure;Samples;Min_cycle;Max_cycle;Signal;HPM_P1;HPM_P2
2022/12/29 00:01:17;;;;;;;;;;;10.10;99.90;;;;;;5053036;28;20227;-75
2022/12/29 00:03:45;;;;;;;;;;;10.10;99.90;;;;;;5045750;28;19917;-76
2022/12/29 00:06:10;;;;;;;;;;;10.10;99.90;;;;;;5052731;28;19916;-82
2022/12/29 00:08:39;;;;;;;;;;;10.10;99.90;;;;;;5054044;28;20357;-76
2022/12/29 00:11:09;;;;;;;;;;;10.10;99.90;;;;;;5052393;28;19920;-76
2022/12/29 00:16:19;;;;;;;;;;;10.10;99.90;;;;;;5050119;28;20010;-80
2022/12/29 00:18:45;;;;;;;;;;;10.10;99.90;;;;;;5045754;28;20331;-78
2022/12/29 00:35:09;;;;;;;;;;;10.20;99.90;;;;;;5033962;28;19916;-78
2022/12/29 00:45:58;;;;;;;;;;;10.30;99.90;;;;;;5053642;28;19916;-80
2022/12/29 00:51:08;;;;;;;;;;;10.30;99.90;;;;;;5039411;28;19920;-79
2022/12/29 00:53:34;;;;;;;;;;;10.30;99.90;;;;;;5054894;28;20199;-78
2022/12/29 00:56:00;;;;;;;;;;;10.30;99.90;;;;;;5055061;28;20219;-79
2022/12/29 00:58:29;;;;;;;;;;;10.30;99.90;;;;;;5052460;28;19909;-81
2022/12/29 01:01:05;;;;;;;;;;;10.30;99.90;;;;;;5054771;28;19920;-78
2022/12/29 01:03:31;;;;;;;;;;;10.30;99.90;;;;;;5052590;28;19908;-80
2022/12/29 01:05:56;;;;;;;;;;;10.40;99.90;;;;;;5052514;28;20310;-76
2022/12/29 01:08:22;;;;;;;;;;;10.40;99.90;;;;;;5051211;28;19967;-78
2022/12/29 01:10:57;;;;;;;;;;;10.40;99.90;;;;;;5054338;28;19928;-77
2022/12/29 01:13:23;;;;;;;;;;;10.40;99.90;;;;;;5051241;28;20351;-80
2022/12/29 01:15:49;;;;;;;;;;;10.40;99.90;;;;;;5051634;28;20008;-77
2022/12/29 01:18:15;;;;;;;;;;;10.50;99.90;;;;;;5054847;28;19909;-81
2022/12/29 01:20:41;;;;;;;;;;;10.40;99.90;;;;;;5050037;28;19917;-81
2022/12/29 01:23:06;;;;;;;;;;;10.40;99.90;;;;;;5069206;28;20311;-79
2022/12/29 01:25:32;;;;;;;;;;;10.40;99.90;;;;;;5051828;28;19936;-80
2022/12/29 01:27:58;;;;;;;;;;;10.40;99.90;;;;;;5053449;28;19915;-80
2022/12/29 01:30:23;;;;;;;;;;;10.40;99.90;;;;;;5053673;28;19924;-81
2022/12/29 01:32:49;;;;;;;;;;;10.40;99.90;;;;;;5052793;28;20200;-79
2022/12/29 01:35:15;;;;;;;;;;;10.30;99.90;;;;;;5049515;28;19924;-76
2022/12/29 01:37:40;;;;;;;;;;;10.40;99.90;;;;;;5045483;28;19935;-76
2022/12/29 01:40:06;;;;;;;;;;;10.30;99.90;;;;;;5046671;28;19915;-87
2022/12/29 01:42:31;;;;;;;;;;;10.30;99.90;;;;;;5046419;28;19924;-80
2022/12/29 01:44:59;;;;;;;;;;;10.30;99.90;;;;;;5052724;28;20239;-80
2022/12/29 01:47:39;;;;;;;;;;;10.30;99.90;;;;;;5050546;28;19913;-79
2022/12/29 01:50:08;;;;;;;;;;;10.30;99.90;;;;;;5046503;28;20255;-83
2022/12/29 01:52:36;;;;;;;;;;;10.30;99.90;;;;;;5048661;28;19913;-78
2022/12/29 01:55:03;;;;;;;;;;;10.30;99.90;;;;;;5049148;28;19921;-80
2022/12/29 01:57:33;;;;;;;;;;;10.30;99.90;;;;;;5048124;28;20017;-80
2022/12/29 02:00:03;;;;;;;;;;;10.30;99.90;;;;;;5052027;28;19921;-79
2022/12/29 02:02:29;;;;;;;;;;;10.30;99.90;;;;;;5050978;28;20257;-80
2022/12/29 02:04:55;;;;;;;;;;;10.30;99.90;;;;;;5032711;28;19967;-79
2022/12/29 02:07:22;;;;;;;;;;;10.40;99.90;;;;;;5051396;28;19913;-80
2022/12/29 02:09:49;;;;;;;;;;;10.30;99.90;;;;;;5045845;28;19964;-80
2022/12/29 02:12:16;;;;;;;;;;;10.30;99.90;;;;;;5047540;28;19913;-78
2022/12/29 02:14:42;;;;;;;;;;;10.30;99.90;;;;;;5047722;28;19917;-84
2022/12/29 02:17:07;;;;;;;;;;;10.30;99.90;;;;;;5043119;28;19920;-78
2022/12/29 02:19:59;;;;;;;;;;;10.30;99.90;;;;;;5048275;28;19917;-81
2022/12/29 02:22:25;;;;;;;;;;;10.30;99.90;;;;;;5046863;28;20308;-78
2022/12/29 02:25:09;;;;;;;;;;;10.30;99.90;;;;;;5064397;28;19971;-76
2022/12/29 02:27:44;;;;;;;;;;;10.20;99.90;;;;;;5048703;28;20012;-81
2022/12/29 02:30:49;;;;;;;;;;;10.20;99.90;;;;;;5049682;28;20381;-78
2022/12/29 02:33:20;;;;;;;;;;;10.20;99.90;;;;;;4994106;28;19916;-77
2022/12/29 02:35:46;;;;;;;;;;;10.20;99.90;;;;;;4979241;28;19982;-78
2022/12/29 02:38:22;;;;;;;;;;;10.20;99.90;;;;;;5017060;28;20288;-77
2022/12/29 02:40:53;;;;;;;;;;;10.20;99.90;;;;;;5054710;28;19999;-76
2022/12/29 02:43:21;;;;;;;;;;;10.20;99.90;;;;;;5047633;28;19921;-80
2022/12/29 02:46:08;;;;;;;;;;;10.20;99.90;;;;;;5053024;28;19920;-76
2022/12/29 02:48:41;;;;;;;;;;;10.20;99.90;;;;;;5055882;28;19919;-77
2022/12/29 02:51:18;;;;;;;;;;;10.20;99.90;;;;;;5054231;28;19917;-79
2022/12/29 02:56:28;;;;;;;;;;;10.10;99.90;;;;;;5054545;28;20027;-79
2022/12/29 02:58:54;;;;;;;;;;;10.10;99.90;;;;;;5054517;28;20379;-79
2022/12/29 03:01:28;;;;;;;;;;;10.00;99.90;;;;;;5054605;28;20312;-77
2022/12/29 03:03:57;;;;;;;;;;;9.90;99.90;;;;;;5054834;28;20076;-75
2022/12/29 03:06:51;;;;;;;;;;;9.80;99.90;;;;;;5047961;28;19913;-76
2022/12/29 03:09:35;;;;;;;;;;;9.80;99.90;;;;;;5049693;28;19979;-75
2022/12/29 03:12:08;;;;;;;;;;;9.80;99.90;;;;;;5054653;28;20334;-75
2022/12/29 03:17:46;;;;;;;;;;;9.70;99.90;;;;;;5055878;28;19960;-77
2022/12/29 03:20:15;;;;;;;;;;;9.60;99.90;;;;;;5054791;28;19920;-80
2022/12/29 03:22:43;;;;;;;;;;;9.60;99.90;;;;;;5054220;28;19917;-76
2022/12/29 03:25:11;;;;;;;;;;;9.50;99.90;;;;;;5055064;28;19967;-78
2022/12/29 03:27:40;;;;;;;;;;;9.50;99.90;;;;;;5056439;28;20291;-81
2022/12/29 03:30:06;;;;;;;;;;;9.50;99.90;;;;;;5054894;28;19920;-84
2022/12/29 03:32:38;;;;;;;;;;;9.50;99.90;;;;;;5054784;28;19913;-80
2022/12/29 03:35:05;;;;;;;;;;;9.50;99.90;;;;;;5053572;28;20335;-79
2022/12/29 03:37:39;;;;;;;;;;;9.50;99.90;;;;;;5053891;28;20493;-83
2022/12/29 03:40:04;;;;;;;;;;;9.50;99.90;;;;;;5048298;28;19909;-81
2022/12/29 03:42:32;;;;;;;;;;;9.50;99.90;;;;;;5052918;28;19920;-78
2022/12/29 03:44:58;;;;;;;;;;;9.50;99.90;;;;;;5053987;28;19933;-79
2022/12/29 03:47:24;;;;;;;;;;;9.50;99.90;;;;;;5052397;28;20291;-80
2022/12/29 03:49:50;;;;;;;;;;;9.60;99.90;;;;;;5050563;28;20311;-82
2022/12/29 03:52:16;;;;;;;;;;;9.50;99.90;;;;;;5055040;28;20322;-78
2022/12/29 03:54:42;;;;;;;;;;;9.50;99.90;;;;;;5041600;28;19913;-79
2022/12/29 03:57:08;;;;;;;;;;;9.50;99.90;;;;;;5054552;28;19924;-77
2022/12/29 03:59:34;;;;;;;;;;;9.50;99.90;;;;;;5054703;28;20286;-81
2022/12/29 04:01:59;;;;;;;;;;;9.40;99.90;;;;;;5053142;28;19936;-79
2022/12/29 04:04:25;;;;;;;;;;;9.50;99.90;;;;;;5052221;28;20226;-80
2022/12/29 04:06:51;;;;;;;;;;;9.50;99.90;;;;;;5053776;28;19913;-78
2022/12/29 04:09:16;;;;;;;;;;;9.50;99.90;;;;;;5047584;28;19932;-76
2022/12/29 04:11:42;;;;;;;;;;;9.50;99.90;;;;;;5040919;28;19923;-78
2022/12/29 04:14:08;;;;;;;;;;;9.60;99.90;;;;;;5053180;28;19913;-79
2022/12/29 04:16:35;;;;;;;;;;;9.60;99.90;;;;;;5045115;28;19950;-78
2022/12/29 04:19:01;;;;;;;;;;;9.60;99.90;;;;;;5041283;28;19909;-77
2022/12/29 04:21:27;;;;;;;;;;;9.70;99.90;;;;;;5050598;28;19917;-80
2022/12/29 04:23:52;;;;;;;;;;;9.60;99.90;;;;;;5045408;28;19919;-79
2022/12/29 04:26:18;;;;;;;;;;;9.60;99.90;;;;;;5054258;28;20193;-80
2022/12/29 04:28:44;;;;;;;;;;;9.60;99.90;;;;;;5035587;28;19980;-79
2022/12/29 04:31:09;;;;;;;;;;;9.60;99.90;;;;;;5067748;28;20029;-76
2022/12/29 04:33:35;;;;;;;;;;;9.50;99.90;;;;;;5052475;28;20015;-77
2022/12/29 04:36:01;;;;;;;;;;;9.50;99.90;;;;;;5052987;28;19915;-79
2022/12/29 04:38:27;;;;;;;;;;;9.40;99.90;;;;;;5043292;28;19913;-78
2022/12/29 04:40:52;;;;;;;;;;;9.40;99.90;;;;;;4974900;28;2143342;-80
2022/12/29 04:43:24;;;;;;;;;;;9.40;99.90;;;;;;5051365;28;19970;-80
2022/12/29 04:45:50;;;;;;;;;;;9.40;99.90;;;;;;5055450;28;19935;-78
2022/12/29 04:48:15;;;;;;;;;;;9.30;99.90;;;;;;5051606;28;20292;-79
2022/12/29 04:50:41;;;;;;;;;;;9.30;99.90;;;;;;5054746;28;19966;-78
2022/12/29 04:53:07;;;;;;;;;;;9.30;99.90;;;;;;5054181;28;19912;-76
2022/12/29 04:55:32;;;;;;;;;;;9.30;99.90;;;;;;5054767;28;19917;-82
2022/12/29 04:57:58;;;;;;;;;;;9.30;99.90;;;;;;5053983;28;19916;-78
2022/12/29 05:00:24;;;;;;;;;;;9.30;99.90;;;;;;5053005;28;19917;-77
2022/12/29 05:02:50;;;;;;;;;;;9.30;99.90;;;;;;5052536;28;19967;-77
2022/12/29 05:05:15;;;;;;;;;;;9.30;99.90;;;;;;5052563;28;20322;-77
2022/12/29 05:07:41;;;;;;;;;;;9.30;99.90;;;;;;5053391;28;19920;-78
2022/12/29 05:10:07;;;;;;;;;;;9.30;99.90;;;;;;5053016;28;19952;-78
2022/12/29 05:12:33;;;;;;;;;;;9.30;99.90;;;;;;5053105;28;19928;-80
2022/12/29 05:14:59;;;;;;;;;;;9.30;99.90;;;;;;5048551;28;19925;-77
2022/12/29 05:17:24;;;;;;;;;;;9.30;99.90;;;;;;5050159;28;19913;-78
2022/12/29 05:19:50;;;;;;;;;;;9.30;99.90;;;;;;5046985;28;19912;-85
2022/12/29 05:22:16;;;;;;;;;;;9.20;99.90;;;;;;5053029;28;20007;-78
2022/12/29 05:24:41;;;;;;;;;;;9.30;99.90;;;;;;5054617;28;19970;-79
2022/12/29 05:27:07;;;;;;;;;;;9.30;99.90;;;;;;5054116;28;19965;-77
2022/12/29 05:29:33;;;;;;;;;;;9.20;99.90;;;;;;5069900;28;20314;-75
2022/12/29 05:31:59;;;;;;;;;;;9.20;99.90;;;;;;5052106;28;19909;-80
2022/12/29 05:34:24;;;;;;;;;;;9.20;99.90;;;;;;5054613;28;20000;-79
2022/12/29 05:36:50;;;;;;;;;;;9.20;99.90;;;;;;5053560;28;19955;-80
2022/12/29 05:39:16;;;;;;;;;;;9.20;99.90;;;;;;5052885;28;19974;-79
2022/12/29 05:41:41;;;;;;;;;;;9.20;99.90;;;;;;5054100;28;19921;-75
2022/12/29 05:44:07;;;;;;;;;;;9.20;99.90;;;;;;5053503;28;19912;-78
2022/12/29 05:46:33;;;;;;;;;;;9.20;99.90;;;;;;5053354;28;19951;-77
2022/12/29 05:48:58;;;;;;;;;;;9.10;99.90;;;;;;5052567;28;20214;-83
2022/12/29 05:51:24;;;;;;;;;;;9.10;99.90;;;;;;5053465;28;19909;-81
2022/12/29 05:53:50;;;;;;;;;;;9.00;99.90;;;;;;5050634;28;19913;-77
2022/12/29 05:56:16;;;;;;;;;;;9.00;99.90;;;;;;5052803;28;19909;-78
2022/12/29 05:58:41;;;;;;;;;;;9.00;99.90;;;;;;5051980;28;19915;-78
2022/12/29 06:01:07;;;;;;;;;;;9.00;99.90;;;;;;5052269;28;19916;-77
2022/12/29 06:03:33;;;;;;;;;;;9.00;99.90;;;;;;5053247;28;19913;-80
2022/12/29 06:05:58;;;;;;;;;;;9.00;99.90;;;;;;5053547;28;20300;-80
2022/12/29 06:08:24;;;;;;;;;;;9.00;99.90;;;;;;5047726;28;19909;-79
2022/12/29 06:10:50;;;;;;;;;;;9.00;99.90;;;;;;5045377;28;19917;-81
2022/12/29 06:13:15;;;;;;;;;;;9.00;99.90;;;;;;5052704;28;20251;-79
2022/12/29 06:15:41;;;;;;;;;;;8.90;99.90;;;;;;5050732;28;19908;-77
2022/12/29 06:18:07;;;;;;;;;;;8.90;99.90;;;;;;5052848;28;19920;-82
2022/12/29 06:20:32;;;;;;;;;;;9.00;99.90;;;;;;5053243;28;20311;-79
2022/12/29 06:22:58;;;;;;;;;;;9.00;99.90;;;;;;5052094;28;20047;-77
2022/12/29 06:25:24;;;;;;;;;;;8.90;99.90;;;;;;5050039;28;20004;-79
2022/12/29 06:27:50;;;;;;;;;;;8.90;99.90;;;;;;5041673;28;19960;-79
2022/12/29 06:30:16;;;;;;;;;;;8.90;99.90;;;;;;5055197;28;19913;-81
2022/12/29 06:32:42;;;;;;;;;;;8.90;99.90;;;;;;5057285;28;19924;-76
2022/12/29 06:35:08;;;;;;;;;;;8.90;99.90;;;;;;5056189;28;19942;-75
2022/12/29 06:37:34;;;;;;;;;;;8.90;99.90;;;;;;5053713;28;19932;-75
2022/12/29 06:39:59;;;;;;;;;;;8.90;99.90;;;;;;5056439;28;19919;-79
2022/12/29 06:42:25;;;;;;;;;;;8.90;99.90;;;;;;5055148;28;19925;-82
2022/12/29 06:44:52;;;;;;;;;;;8.90;99.90;;;;;;5056643;28;19912;-80
2022/12/29 06:47:18;;;;;;;;;;;8.90;99.90;;;;;;5050456;28;20372;-78
2022/12/29 06:49:44;;;;;;;;;;;8.90;99.90;;;;;;5056845;28;20003;-80
2022/12/29 06:52:09;;;;;;;;;;;8.90;99.90;;;;;;5056823;28;19947;-80
2022/12/29 06:54:35;;;;;;;;;;;8.90;99.90;;;;;;5055966;28;19963;-76
2022/12/29 06:57:01;;;;;;;;;;;8.90;99.90;;;;;;5056860;28;19909;-81
2022/12/29 06:59:26;;;;;;;;;;;8.90;99.90;;;;;;5055547;28;19916;-80
2022/12/29 07:01:52;;;;;;;;;;;8.90;99.90;;;;;;5049317;28;20219;-79
2022/12/29 07:04:18;;;;;;;;;;;8.90;99.90;;;;;;5050903;28;20296;-79
2022/12/29 07:06:43;;;;;;;;;;;8.90;99.90;;;;;;5056688;28;19912;-79
2022/12/29 07:09:09;;;;;;;;;;;9.00;99.90;;;;;;5054882;28;19912;-76
2022/12/29 07:11:35;;;;;;;;;;;8.90;99.90;;;;;;5055545;28;19909;-79
2022/12/29 07:14:01;;;;;;;;;;;8.90;99.90;;;;;;5052379;28;19947;-79
2022/12/29 07:16:29;;;;;;;;;;;8.90;99.90;;;;;;5048296;28;19919;-79
2022/12/29 07:18:55;;;;;;;;;;;8.90;99.90;;;;;;5055654;28;20197;-78
2022/12/29 07:21:20;;;;;;;;;;;8.90;99.90;;;;;;5048742;28;19920;-80
2022/12/29 07:23:47;;;;;;;;;;;8.90;99.90;;;;;;5043055;28;19913;-76
2022/12/29 07:26:13;;;;;;;;;;;8.90;99.90;;;;;;5046324;28;19921;-75
2022/12/29 07:28:39;;;;;;;;;;;8.90;99.90;;;;;;5056138;28;20614;-80
2022/12/29 07:31:05;;;;;;;;;;;8.90;99.90;;;;;;5054534;28;19917;-75
2022/12/29 07:33:32;;;;;;;;;;;9.00;99.90;;;;;;5052400;28;19909;-78
2022/12/29 07:35:58;;;;;;;;;;;9.00;99.90;;;;;;5053796;28;20023;-79
2022/12/29 07:38:23;;;;;;;;;;;9.00;99.90;;;;;;5053468;28;19986;-79
2022/12/29 07:40:49;;;;;;;;;;;8.90;99.90;;;;;;5049195;28;19912;-76
2022/12/29 07:43:15;;;;;;;;;;;8.90;99.90;;;;;;5054435;28;19921;-79
2022/12/29 07:45:40;;;;;;;;;;;8.90;99.90;;;;;;5053726;28;19987;-78
2022/12/29 07:48:09;;;;;;;;;;;8.90;99.90;;;;;;5055317;28;19924;-79
2022/12/29 07:50:35;;;;;;;;;;;8.90;99.90;;;;;;5036656;28;19932;-77
2022/12/29 07:53:01;;;;;;;;;;;8.90;99.90;;;;;;5050663;28;19944;-76
2022/12/29 07:55:27;;;;;;;;;;;8.90;99.90;;;;;;5054559;28;19986;-79
2022/12/29 07:57:53;;;;;;;;;;;8.80;99.90;;;;;;5048634;28;19917;-79
2022/12/29 08:00:19;;;;;;;;;;;8.80;99.90;;;;;;5036724;28;19921;-79
2022/12/29 08:02:45;;;;;;;;;;;8.80;99.90;;;;;;5037185;28;19920;-79
2022/12/29 08:05:11;;;;;;;;;;;8.80;99.90;;;;;;5048137;28;19955;-79
2022/12/29 08:07:36;;;;;;;;;;;8.80;99.90;;;;;;5047254;28;19962;-81
2022/12/29 08:10:02;;;;;;;;;;;8.80;99.90;;;;;;5051442;28;20304;-77
2022/12/29 08:12:28;;;;;;;;;;;8.70;99.90;;;;;;5048218;28;20293;-79
2022/12/29 08:14:53;;;;;;;;;;;8.70;99.90;;;;;;5054121;28;19944;-78
2022/12/29 08:17:19;;;;;;;;;;;8.70;99.90;;;;;;5049453;28;19927;-80
2022/12/29 08:19:45;;;;;;;;;;;8.70;99.90;;;;;;5047757;28;20325;-78
2022/12/29 08:22:10;;;;;;;;;;;8.70;99.90;;;;;;5049691;28;20189;-77
2022/12/29 08:24:36;;;;;;;;;;;8.70;99.90;;;;;;5050914;28;19912;-76
2022/12/29 08:27:02;;;;;;;;;;;8.70;99.90;;;;;;5048153;28;19971;-80
2022/12/29 08:29:27;;;;;;;;;;;8.70;99.90;;;;;;5053165;28;19962;-78
2022/12/29 08:31:53;;;;;;;;;;;8.60;99.90;;;;;;5050157;28;20294;-78
2022/12/29 08:34:18;;;;;;;;;;;8.60;99.90;;;;;;5050874;28;19928;-79
2022/12/29 08:36:44;;;;;;;;;;;8.60;99.90;;;;;;5052905;28;19916;-80
2022/12/29 08:39:10;;;;;;;;;;;8.60;99.90;;;;;;5045308;28;20003;-77
2022/12/29 08:41:36;;;;;;;;;;;8.60;99.90;;;;;;5047840;28;20323;-77
2022/12/29 08:44:02;;;;;;;;;;;8.60;99.90;;;;;;5054373;28;20215;-78
2022/12/29 08:46:28;;;;;;;;;;;8.60;99.90;;;;;;5051033;28;19917;-77
2022/12/29 08:48:54;;;;;;;;;;;8.60;99.90;;;;;;5052953;28;19916;-77
2022/12/29 08:51:20;;;;;;;;;;;8.70;99.90;;;;;;5050851;28;19924;-79
2022/12/29 08:53:45;;;;;;;;;;;8.70;99.90;;;;;;5052225;28;19944;-79
2022/12/29 08:56:11;;;;;;;;;;;8.70;99.90;;;;;;5046813;28;20292;-80
2022/12/29 08:58:37;;;;;;;;;;;8.70;99.90;;;;;;5044664;28;20007;-76
2022/12/29 09:01:03;;;;;;;;;;;8.70;99.90;;;;;;5066066;28;19963;-82
2022/12/29 09:03:28;;;;;;;;;;;8.70;99.90;;;;;;5051919;28;20220;-80
2022/12/29 09:05:54;;;;;;;;;;;8.70;99.90;;;;;;5053509;28;20316;-76
2022/12/29 09:08:20;;;;;;;;;;;8.60;99.90;;;;;;5042200;28;19921;-83
2022/12/29 09:10:46;;;;;;;;;;;8.60;99.90;;;;;;5046181;28;20012;-79
2022/12/29 09:13:13;;;;;;;;;;;8.60;99.90;;;;;;5052016;28;19923;-76
2022/12/29 09:15:38;;;;;;;;;;;8.60;99.90;;;;;;5054716;28;20254;-80
2022/12/29 09:18:04;;;;;;;;;;;8.60;99.90;;;;;;5052960;28;19908;-76
2022/12/29 09:20:30;;;;;;;;;;;8.60;99.90;;;;;;5051207;28;19963;-77
2022/12/29 09:22:55;;;;;;;;;;;8.60;99.90;;;;;;5046398;28;19912;-75
2022/12/29 09:25:24;;;;;;;;;;;8.60;99.90;;;;;;5049157;28;19921;-75
2022/12/29 09:27:52;;;;;;;;;;;8.60;99.90;;;;;;5053236;28;19916;-75
2022/12/29 09:30:17;;;;;;;;;;;8.60;99.90;;;;;;5049845;28;19923;-77
2022/12/29 09:32:43;;;;;;;;;;;8.50;99.90;;;;;;5052071;28;19921;-76
2022/12/29 09:35:09;;;;;;;;;;;8.50;99.90;;;;;;5049529;28;19915;-78
2022/12/29 09:37:35;;;;;;;;;;;8.50;99.90;;;;;;5049046;28;20214;-76
2022/12/29 09:40:00;;;;;;;;;;;8.50;99.90;;;;;;5031397;28;19928;-80
2022/12/29 09:42:26;;;;;;;;;;;8.50;99.90;;;;;;5048862;28;20640;-82
2022/12/29 09:45:04;;;;;;;;;;;8.50;99.90;;;;;;5052185;28;19916;-80
2022/12/29 09:47:29;;;;;;;;;;;8.40;99.90;;;;;;5049118;28;19913;-77
2022/12/29 09:49:55;;;;;;;;;;;8.50;99.90;;;;;;5051939;28;19916;-77
2022/12/29 09:52:21;;;;;;;;;;;8.50;99.90;;;;;;5049165;28;20743;-83
2022/12/29 09:54:46;;;;;;;;;;;8.50;99.90;;;;;;5049252;28;20176;-83
2022/12/29 09:57:23;;;;;;;;;;;8.50;99.90;;;;;;5054101;28;19924;-81
2022/12/29 09:59:50;;;;;;;;;;;8.60;99.90;;;;;;5051940;28;20296;-76
2022/12/29 10:02:19;;;;;;;;;;;8.70;99.90;;;;;;5050435;28;19913;-81
2022/12/29 10:04:44;;;;;;;;;;;8.70;99.90;;;;;;5049540;28;19944;-77
2022/12/29 10:07:15;;;;;;;;;;;8.70;99.90;;;;;;5048462;28;20583;-76
2022/12/29 10:09:47;;;;;;;;;;;8.70;99.90;;;;;;5054199;28;20015;-77
2022/12/29 10:12:26;;;;;;;;;;;8.70;99.90;;;;;;5057965;28;19913;-79
2022/12/29 10:14:52;;;;;;;;;;;8.70;99.90;;;;;;5051338;28;19917;-81
2022/12/29 10:17:39;;;;;;;;;;;8.80;99.90;;;;;;5048316;28;20012;-77
2022/12/29 10:20:16;;;;;;;;;;;8.80;99.90;;;;;;5056346;28;19944;-77
2022/12/29 10:22:51;;;;;;;;;;;8.80;99.90;;;;;;5056183;28;20603;-82
2022/12/29 10:25:22;;;;;;;;;;;8.80;99.90;;;;;;5056821;28;19913;-76
2022/12/29 10:27:52;;;;;;;;;;;8.80;99.90;;;;;;5056420;28;20035;-82
2022/12/29 10:30:18;;;;;;;;;;;8.70;99.90;;;;;;5055818;28;19919;-76
2022/12/29 10:32:54;;;;;;;;;;;8.80;99.90;;;;;;5051425;28;19916;-77
2022/12/29 10:35:23;;;;;;;;;;;8.80;99.90;;;;;;5057223;28;19935;-75
2022/12/29 10:37:56;;;;;;;;;;;8.80;99.90;;;;;;5057637;28;19984;-79
2022/12/29 10:40:25;;;;;;;;;;;8.80;99.90;;;;;;5055206;28;20216;-76
2022/12/29 10:42:55;;;;;;;;;;;8.90;99.90;;;;;;5055321;28;20445;-77
2022/12/29 10:45:22;;;;;;;;;;;8.90;99.90;;;;;;5053150;28;19967;-75
2022/12/29 10:47:59;;;;;;;;;;;8.90;99.90;;;;;;5050739;28;19960;-82
2022/12/29 10:50:24;;;;;;;;;;;8.90;99.90;;;;;;5049625;28;19917;-76
2022/12/29 10:52:51;;;;;;;;;;;9.10;99.90;;;;;;5049622;28;19909;-81
2022/12/29 10:55:22;;;;;;;;;;;9.20;99.90;;;;;;5053364;28;19920;-80
2022/12/29 10:57:48;;;;;;;;;;;9.40;99.90;;;;;;5051812;28;19917;-77
2022/12/29 11:00:20;;;;;;;;;;;9.60;99.90;;;;;;5052508;28;19963;-81
2022/12/29 11:02:45;;;;;;;;;;;9.60;99.90;;;;;;5054606;28;19909;-79
2022/12/29 11:05:14;;;;;;;;;;;9.70;99.90;;;;;;5055945;28;19975;-79
2022/12/29 11:07:40;;;;;;;;;;;9.60;99.90;;;;;;5054625;28;20278;-83
2022/12/29 11:10:29;;;;;;;;;;;9.60;99.90;;;;;;5069359;28;20012;-82
2022/12/29 11:12:57;;;;;;;;;;;9.70;99.90;;;;;;5056223;28;19921;-81
2022/12/29 11:15:23;;;;;;;;;;;9.70;99.90;;;;;;5056225;28;19920;-76
2022/12/29 11:17:49;;;;;;;;;;;9.70;99.90;;;;;;5047814;28;19913;-79
2022/12/29 11:20:37;;;;;;;;;;;9.70;99.90;;;;;;5055288;28;19913;-85
2022/12/29 11:23:04;;;;;;;;;;;9.60;99.90;;;;;;5056071;28;19936;-80
2022/12/29 11:25:29;;;;;;;;;;;9.60;99.90;;;;;;5055980;28;19909;-76
2022/12/29 11:28:15;;;;;;;;;;;9.60;99.90;;;;;;5055585;28;21367;-81
2022/12/29 11:30:41;;;;;;;;;;;9.60;99.90;;;;;;5052881;28;20315;-80
2022/12/29 11:33:08;;;;;;;;;;;9.60;99.90;;;;;;5048575;28;20011;-75
2022/12/29 11:35:35;;;;;;;;;;;9.60;99.90;;;;;;5051999;28;19925;-80
2022/12/29 11:38:02;;;;;;;;;;;9.60;99.90;;;;;;5045643;28;19913;-82
2022/12/29 11:40:28;;;;;;;;;;;9.60;99.90;;;;;;5045875;28;20308;-83
2022/12/29 11:42:55;;;;;;;;;;;9.50;99.90;;;;;;5051710;28;19928;-76
2022/12/29 11:45:21;;;;;;;;;;;9.50;99.90;;;;;;5032758;28;19921;-82
2022/12/29 11:47:52;;;;;;;;;;;9.50;99.90;;;;;;5047835;28;20216;-78
2022/12/29 11:50:20;;;;;;;;;;;9.50;99.90;;;;;;5052577;28;20012;-77
2022/12/29 11:52:46;;;;;;;;;;;9.60;99.90;;;;;;5051051;28;19909;-78
2022/12/29 11:55:23;;;;;;;;;;;9.60;99.90;;;;;;5054636;28;19913;-75
2022/12/29 11:57:50;;;;;;;;;;;9.60;99.90;;;;;;5047416;28;19916;-76
2022/12/29 12:00:26;;;;;;;;;;;9.60;99.90;;;;;;5059848;28;20380;-82
2022/12/29 12:03:03;;;;;;;;;;;9.60;99.90;;;;;;5034929;28;19944;-77
2022/12/29 12:05:30;;;;;;;;;;;9.60;99.90;;;;;;5043461;28;19909;-77
2022/12/29 12:07:58;;;;;;;;;;;9.70;99.90;;;;;;5044928;28;19920;-78
2022/12/29 12:10:29;;;;;;;;;;;9.80;99.90;;;;;;5049305;28;19920;-76
2022/12/29 12:13:03;;;;;;;;;;;10.10;99.90;;;;;;5054218;28;19917;-78
2022/12/29 12:15:36;;;;;;;;;;;10.10;99.90;;;;;;5054753;28;19920;-76
2022/12/29 12:18:10;;;;;;;;;;;10.10;99.90;;;;;;5053079;28;19924;-81
2022/12/29 12:20:38;;;;;;;;;;;10.10;99.90;;;;;;5052602;28;19916;-84
2022/12/29 12:23:22;;;;;;;;;;;10.10;99.90;;;;;;5053658;28;19981;-77
2022/12/29 12:25:54;;;;;;;;;;;10.20;99.90;;;;;;5050926;28;19913;-81
2022/12/29 12:28:23;;;;;;;;;;;10.10;99.90;;;;;;5054266;28;19916;-77
2022/12/29 12:30:50;;;;;;;;;;;10.10;99.90;;;;;;5047944;28;19936;-78
2022/12/29 12:33:22;;;;;;;;;;;10.00;99.90;;;;;;5048997;28;19917;-75
2022/12/29 12:35:58;;;;;;;;;;;9.90;99.90;;;;;;5049012;28;19909;-77
2022/12/29 12:38:33;;;;;;;;;;;9.90;99.90;;;;;;5045371;28;19916;-77
2022/12/29 12:41:01;;;;;;;;;;;10.00;99.90;;;;;;5048730;28;19962;-78
2022/12/29 12:43:36;;;;;;;;;;;10.00;99.90;;;;;;5061725;28;19921;-78
2022/12/29 12:46:40;;;;;;;;;;;10.00;99.90;;;;;;5045089;28;19924;-77
2022/12/29 12:49:16;;;;;;;;;;;10.00;99.90;;;;;;4969963;28;19915;-79
2022/12/29 12:51:57;;;;;;;;;;;9.90;99.90;;;;;;4954555;28;19918;-81
2022/12/29 12:54:41;;;;;;;;;;;9.80;99.90;;;;;;5028896;28;19935;-77
2022/12/29 12:57:31;;;;;;;;;;;9.80;99.90;;;;;;5048973;28;19917;-77
2022/12/29 12:59:58;;;;;;;;;;;9.70;99.90;;;;;;5051490;28;19924;-82
2022/12/29 13:02:37;;;;;;;;;;;9.80;99.90;;;;;;5052589;28;19913;-78
2022/12/29 13:05:21;;;;;;;;;;;9.70;99.90;;;;;;5044472;28;19914;-77
2022/12/29 13:07:46;;;;;;;;;;;9.60;99.90;;;;;;5054980;28;19913;-78
2022/12/29 13:10:18;;;;;;;;;;;9.60;99.90;;;;;;5048637;28;19928;-80
2022/12/29 13:12:51;;;;;;;;;;;9.60;99.90;;;;;;5051484;28;20215;-77
2022/12/29 13:15:29;;;;;;;;;;;9.60;99.90;;;;;;5047769;28;19913;-83
2022/12/29 13:18:06;;;;;;;;;;;9.50;99.90;;;;;;5051358;28;20207;-77
2022/12/29 13:20:31;;;;;;;;;;;9.50;99.90;;;;;;5050116;28;19917;-76
2022/12/29 13:23:06;;;;;;;;;;;9.50;99.90;;;;;;5049542;28;20208;-80
2022/12/29 13:25:39;;;;;;;;;;;9.50;99.90;;;;;;5046965;28;19935;-79
2022/12/29 13:28:24;;;;;;;;;;;9.50;99.90;;;;;;5053051;28;19917;-77
2022/12/29 13:30:57;;;;;;;;;;;9.50;99.90;;;;;;5050201;28;19916;-78
2022/12/29 13:33:46;;;;;;;;;;;9.50;99.90;;;;;;5048512;28;19968;-78
2022/12/29 13:36:11;;;;;;;;;;;9.50;99.90;;;;;;5048818;28;19921;-77
2022/12/29 13:38:48;;;;;;;;;;;9.50;99.90;;;;;;5046584;28;20188;-79
2022/12/29 13:41:18;;;;;;;;;;;9.50;99.90;;;;;;5042043;28;20260;-78
2022/12/29 13:43:46;;;;;;;;;;;9.40;99.90;;;;;;5055112;28;19939;-78
2022/12/29 13:46:18;;;;;;;;;;;9.40;99.90;;;;;;5055878;28;19919;-82
2022/12/29 13:48:48;;;;;;;;;;;9.50;99.90;;;;;;5054921;28;19909;-77
2022/12/29 13:51:15;;;;;;;;;;;9.40;99.90;;;;;;5052038;28;19920;-77
2022/12/29 13:53:56;;;;;;;;;;;9.50;99.90;;;;;;5055758;28;19916;-77
2022/12/29 13:56:34;;;;;;;;;;;9.50;99.90;;;;;;5056375;28;20392;-76
2022/12/29 13:59:02;;;;;;;;;;;9.50;99.90;;;;;;5048236;28;20165;-78
2022/12/29 14:01:36;;;;;;;;;;;9.40;99.90;;;;;;5055061;28;19923;-76
2022/12/29 14:04:20;;;;;;;;;;;9.50;99.90;;;;;;5059890;28;20012;-78
2022/12/29 14:06:47;;;;;;;;;;;9.50;99.90;;;;;;5055197;28;20211;-77
2022/12/29 14:09:28;;;;;;;;;;;9.40;99.90;;;;;;5057121;28;19960;-77
2022/12/29 14:11:54;;;;;;;;;;;9.50;99.90;;;;;;5043545;28;19928;-78
2022/12/29 14:14:28;;;;;;;;;;;9.50;99.90;;;;;;5056410;28;19913;-77
2022/12/29 14:16:54;;;;;;;;;;;9.50;99.90;;;;;;5053430;28;19916;-78
2022/12/29 14:19:30;;;;;;;;;;;9.50;99.90;;;;;;5049282;28;19920;-78
2022/12/29 14:21:57;;;;;;;;;;;9.40;99.90;;;;;;5042015;28;20304;-77
2022/12/29 14:24:32;;;;;;;;;;;9.50;99.90;;;;;;5051157;28;19913;-77
2022/12/29 14:26:58;;;;;;;;;;;9.50;99.90;;;;;;5048768;28;19908;-77
2022/12/29 14:29:24;;;;;;;;;;;9.40;99.90;;;;;;5048893;28;20308;-77
2022/12/29 14:31:53;;;;;;;;;;;9.40;99.90;;;;;;5055713;28;19920;-80
2022/12/29 14:34:21;;;;;;;;;;;9.40;99.90;;;;;;5045075;28;19916;-77
2022/12/29 14:36:47;;;;;;;;;;;9.40;99.90;;;;;;5055185;28;20327;-76
2022/12/29 14:39:33;;;;;;;;;;;9.40;99.90;;;;;;5052583;28;19909;-78
2022/12/29 14:42:04;;;;;;;;;;;9.40;99.90;;;;;;5053933;28;20367;-77
2022/12/29 14:44:29;;;;;;;;;;;9.30;99.90;;;;;;5049865;28;19920;-76
2022/12/29 14:46:58;;;;;;;;;;;9.20;99.90;;;;;;5050557;28;19920;-77
2022/12/29 14:49:28;;;;;;;;;;;9.20;99.90;;;;;;5055192;28;19973;-77
2022/12/29 14:52:03;;;;;;;;;;;9.10;99.90;;;;;;5051915;28;19920;-77
2022/12/29 14:54:35;;;;;;;;;;;9.10;99.90;;;;;;5065018;28;20350;-79
2022/12/29 14:57:02;;;;;;;;;;;9.00;99.90;;;;;;5046610;28;19909;-77
2022/12/29 14:59:28;;;;;;;;;;;9.00;99.90;;;;;;5055251;28;20219;-76
2022/12/29 15:01:55;;;;;;;;;;;9.00;99.90;;;;;;5056042;28;19915;-78
2022/12/29 15:04:31;;;;;;;;;;;8.90;99.90;;;;;;5048507;28;19976;-77
2022/12/29 15:06:57;;;;;;;;;;;8.90;99.90;;;;;;5042753;28;19999;-77
2022/12/29 15:09:38;;;;;;;;;;;8.90;99.90;;;;;;5042980;28;19913;-78